Willseyville, New York
Current Conditions -  °F | °C
As of 1:13 AM on Friday 19 Dec 2014 (Local Time) from KITH Reporting Station
Light Snow Light Snow  
Wind Chill: 16°   Ceiling: 400
Heat Index: 27°   Visibility: 3mi
Dew Point: 27°   Wind: 12mph
Humidity: 100%   Direction: 340°NNW
Pressure: 30"   Gusts: NA
Location:  42.29°N, 76.38°W
Report Text: KITH 190613Z AUTO 34010KT 3SM -SN BR OVC004 M03/M03 A3000 RMK AO2 FZRAE12SNB12 P0000
Loading
Personal Weather Stations






























Interactive Weather Map New forecast layout! Learn more

10-Day Weather Forecast

Advertisements
Track Severe Weather on mobile